Tillamook, OR

5:24 PM PDT on May 25, 2015 (GMT -0700)
Tillamook | | Change Station
CLOSE
Current Station
Airport
Location: Tillamook,
Elevation: 36 ft
Nearby Weather Stations

Elev 36 ft 45.42 °N, 123.81 °W | Updated 9 minutes ago

Overcast
Overcast
61 °F
Feels Like 61 °F
N
10
Wind Variable Wind from NW

Today
High -- | Low -- °F
--% Chance of Precip.
Yesterday
High -- | Low -- °F
Precip. -- in
5:34 AM 8:49 PM
First Quarter, 53% visible
Pressure 30.07 in
Visibility 10.0 miles
Clouds Overcast 2500 ft
Dew Point 52 °F
Humidity 72%
Rainfall 0.00 in
Snow Depth Not available.
UV 1 out of 12
Pollen 7.20 out of 12
Air Quality Not available.
Flu Activity No Activity
METAR KTMK 260015Z AUTO 31009KT 10SM OVC025 16/11 A3007 RMK AO2

More Conditions Fewer Conditions

Pressure 30.07 in
Visibility 10.0 miles
Clouds Overcast 2500 ft
Dew Point 52 °F
Humidity 72%
Rainfall 0.00 in
Snow Depth Not available.
UV 1 out of 12
Pollen 7.20 out of 12
Air Quality Not available.
Flu Activity No Activity
METAR KTMK 260015Z AUTO 31009KT 10SM OVC025 16/11 A3007 RMK AO2

More Conditions Fewer Conditions

10-Day Weather Forecast

Almanac

Astronomy

May. 25, 2015 Rise Set
Actual Time
Civil Twilight
Nautical Twilight
Astronomical Twilight
Moon
Length of Visible Light
Length of Day
Tomorrow will be .
, % of the Moon is Illuminated

Today's Extremes

State Highs State Lows

Community

WunderPhotos

Upload Photos

1,824,187 photos uploaded!

WunderBlogs® & News

Nearby

Air Quality

  Air Quality AQ Index Pollutant
Not available.

Snow Depth

Station Depth Elevation

Earthquake Activity

City Distance Mag. Time & Date
Minimum magnitude displayed is 2.5.

Coastal Water Temperatures

Place Temperature

Stations

Nearby Weather Stations

Station Location Temp. Windchill Dew Point Humidity Wind Precip. Elev Updated Type